sensor_id;sensor_type;location;lat;lon;timestamp;temperature;humidity
27492;DHT22;14927;51.210;6.838;2023-06-14T00:02:10;25.70;31.30
27492;DHT22;14927;51.210;6.838;2023-06-14T00:04:55;25.70;31.50
27492;DHT22;14927;51.210;6.838;2023-06-14T00:07:41;25.60;31.50
27492;DHT22;14927;51.210;6.838;2023-06-14T00:10:26;25.40;31.50
27492;DHT22;14927;51.210;6.838;2023-06-14T00:13:15;25.50;31.90
27492;DHT22;14927;51.210;6.838;2023-06-14T00:15:59;25.50;32.10
27492;DHT22;14927;51.210;6.838;2023-06-14T00:18:44;25.40;32.20
27492;DHT22;14927;51.210;6.838;2023-06-14T00:21:31;25.10;31.90
27492;DHT22;14927;51.210;6.838;2023-06-14T00:24:16;25.30;32.20
27492;DHT22;14927;51.210;6.838;2023-06-14T00:27:00;25.20;32.20
27492;DHT22;14927;51.210;6.838;2023-06-14T00:29:45;25.20;32.40
27492;DHT22;14927;51.210;6.838;2023-06-14T00:32:30;25.10;32.60
27492;DHT22;14927;51.210;6.838;2023-06-14T00:35:14;25.10;32.80
27492;DHT22;14927;51.210;6.838;2023-06-14T00:37:59;25.00;32.70
27492;DHT22;14927;51.210;6.838;2023-06-14T00:40:45;25.00;33.10
27492;DHT22;14927;51.210;6.838;2023-06-14T00:43:30;25.00;33.10
27492;DHT22;14927;51.210;6.838;2023-06-14T00:46:15;24.90;33.10
27492;DHT22;14927;51.210;6.838;2023-06-14T00:49:01;24.90;33.30
27492;DHT22;14927;51.210;6.838;2023-06-14T00:51:46;24.80;33.40
27492;DHT22;14927;51.210;6.838;2023-06-14T00:54:30;24.70;33.70
27492;DHT22;14927;51.210;6.838;2023-06-14T00:57:15;24.60;33.80
27492;DHT22;14927;51.210;6.838;2023-06-14T01:00:00;24.60;34.00
27492;DHT22;14927;51.210;6.838;2023-06-14T01:02:46;24.60;34.20
27492;DHT22;14927;51.210;6.838;2023-06-14T01:05:31;24.50;34.20
27492;DHT22;14927;51.210;6.838;2023-06-14T01:08:36;24.50;34.30
27492;DHT22;14927;51.210;6.838;2023-06-14T01:14:44;24.30;34.80
27492;DHT22;14927;51.210;6.838;2023-06-14T01:17:30;24.30;34.70
27492;DHT22;14927;51.210;6.838;2023-06-14T01:20:17;24.20;34.90
27492;DHT22;14927;51.210;6.838;2023-06-14T01:23:04;24.10;35.00
27492;DHT22;14927;51.210;6.838;2023-06-14T01:25:49;24.10;35.40
27492;DHT22;14927;51.210;6.838;2023-06-14T01:28:36;24.00;35.50
27492;DHT22;14927;51.210;6.838;2023-06-14T01:31:21;24.00;35.60
27492;DHT22;14927;51.210;6.838;2023-06-14T01:34:06;23.90;35.70
27492;DHT22;14927;51.210;6.838;2023-06-14T01:36:53;23.90;35.70
27492;DHT22;14927;51.210;6.838;2023-06-14T01:39:39;23.80;35.90
27492;DHT22;14927;51.210;6.838;2023-06-14T01:42:24;23.80;36.00
27492;DHT22;14927;51.210;6.838;2023-06-14T01:45:10;23.70;36.30
27492;DHT22;14927;51.210;6.838;2023-06-14T01:47:55;23.70;36.20
27492;DHT22;14927;51.210;6.838;2023-06-14T01:50:41;23.70;36.20
27492;DHT22;14927;51.210;6.838;2023-06-14T01:53:25;23.60;36.40
27492;DHT22;14927;51.210;6.838;2023-06-14T01:56:10;23.60;36.40
27492;DHT22;14927;51.210;6.838;2023-06-14T01:58:54;23.50;36.40
27492;DHT22;14927;51.210;6.838;2023-06-14T02:01:40;23.50;36.70
27492;DHT22;14927;51.210;6.838;2023-06-14T02:04:24;23.40;36.60
27492;DHT22;14927;51.210;6.838;2023-06-14T02:07:09;23.40;36.60
27492;DHT22;14927;51.210;6.838;2023-06-14T02:09:53;23.40;36.80
27492;DHT22;14927;51.210;6.838;2023-06-14T02:12:38;23.30;36.80
27492;DHT22;14927;51.210;6.838;2023-06-14T02:15:23;23.30;36.70
27492;DHT22;14927;51.210;6.838;2023-06-14T02:18:08;23.30;36.70
27492;DHT22;14927;51.210;6.838;2023-06-14T02:20:53;23.30;36.80
27492;DHT22;14927;51.210;6.838;2023-06-14T02:23:38;23.30;37.00
27492;DHT22;14927;51.210;6.838;2023-06-14T02:26:22;23.20;36.80
27492;DHT22;14927;51.210;6.838;2023-06-14T02:29:07;23.20;36.80
27492;DHT22;14927;51.210;6.838;2023-06-14T02:31:56;23.20;37.00
27492;DHT22;14927;51.210;6.838;2023-06-14T02:34:41;23.20;37.20
27492;DHT22;14927;51.210;6.838;2023-06-14T02:37:25;23.10;37.00
27492;DHT22;14927;51.210;6.838;2023-06-14T02:40:11;23.10;37.20
27492;DHT22;14927;51.210;6.838;2023-06-14T02:42:56;23.10;37.90
27492;DHT22;14927;51.210;6.838;2023-06-14T02:45:40;23.10;38.00
27492;DHT22;14927;51.210;6.838;2023-06-14T02:48:25;23.00;37.30
27492;DHT22;14927;51.210;6.838;2023-06-14T02:51:10;23.00;37.50
27492;DHT22;14927;51.210;6.838;2023-06-14T02:53:54;23.00;37.40
27492;DHT22;14927;51.210;6.838;2023-06-14T02:56:39;22.90;37.30
27492;DHT22;14927;51.210;6.838;2023-06-14T02:59:25;22.90;37.40
27492;DHT22;14927;51.210;6.838;2023-06-14T03:02:10;22.90;37.50
27492;DHT22;14927;51.210;6.838;2023-06-14T03:04:55;22.80;37.40
27492;DHT22;14927;51.210;6.838;2023-06-14T03:07:39;22.80;37.40
27492;DHT22;14927;51.210;6.838;2023-06-14T03:10:25;22.80;37.40
27492;DHT22;14927;51.210;6.838;2023-06-14T03:13:13;22.80;37.40
27492;DHT22;14927;51.210;6.838;2023-06-14T03:16:01;22.80;37.50
27492;DHT22;14927;51.210;6.838;2023-06-14T03:18:51;22.70;37.60
27492;DHT22;14927;51.210;6.838;2023-06-14T03:21:36;22.70;37.50
27492;DHT22;14927;51.210;6.838;2023-06-14T03:24:21;22.70;37.60
27492;DHT22;14927;51.210;6.838;2023-06-14T03:27:06;22.70;37.70
27492;DHT22;14927;51.210;6.838;2023-06-14T03:29:53;22.70;37.70
27492;DHT22;14927;51.210;6.838;2023-06-14T03:32:38;22.60;37.60
27492;DHT22;14927;51.210;6.838;2023-06-14T03:35:23;22.60;37.60
27492;DHT22;14927;51.210;6.838;2023-06-14T03:38:08;22.60;37.40
27492;DHT22;14927;51.210;6.838;2023-06-14T03:40:52;22.60;37.40
27492;DHT22;14927;51.210;6.838;2023-06-14T03:43:37;22.60;37.40
27492;DHT22;14927;51.210;6.838;2023-06-14T03:46:22;22.60;37.50
27492;DHT22;14927;51.210;6.838;2023-06-14T03:49:06;22.60;37.50
27492;DHT22;14927;51.210;6.838;2023-06-14T03:51:51;22.50;37.40
27492;DHT22;14927;51.210;6.838;2023-06-14T03:54:36;22.60;37.50
27492;DHT22;14927;51.210;6.838;2023-06-14T03:57:21;22.50;37.90
27492;DHT22;14927;51.210;6.838;2023-06-14T04:00:08;22.50;38.00
27492;DHT22;14927;51.210;6.838;2023-06-14T04:02:54;22.50;37.90
27492;DHT22;14927;51.210;6.838;2023-06-14T04:05:39;22.50;38.10
27492;DHT22;14927;51.210;6.838;2023-06-14T04:08:27;22.50;38.10
27492;DHT22;14927;51.210;6.838;2023-06-14T04:11:12;22.40;38.10
27492;DHT22;14927;51.210;6.838;2023-06-14T04:13:57;22.50;38.30
27492;DHT22;14927;51.210;6.838;2023-06-14T04:16:42;22.40;38.10
27492;DHT22;14927;51.210;6.838;2023-06-14T04:19:26;22.40;38.20
27492;DHT22;14927;51.210;6.838;2023-06-14T04:22:11;22.40;38.40
27492;DHT22;14927;51.210;6.838;2023-06-14T04:24:56;22.40;38.50
27492;DHT22;14927;51.210;6.838;2023-06-14T04:27:41;22.40;38.60
27492;DHT22;14927;51.210;6.838;2023-06-14T04:30:26;22.30;38.70
27492;DHT22;14927;51.210;6.838;2023-06-14T04:33:15;22.30;38.90
27492;DHT22;14927;51.210;6.838;2023-06-14T04:36:01;22.30;39.00
27492;DHT22;14927;51.210;6.838;2023-06-14T04:38:46;22.30;39.30
27492;DHT22;14927;51.210;6.838;2023-06-14T04:41:31;22.30;39.40
27492;DHT22;14927;51.210;6.838;2023-06-14T04:44:16;22.30;39.50
27492;DHT22;14927;51.210;6.838;2023-06-14T04:47:01;22.30;39.60
27492;DHT22;14927;51.210;6.838;2023-06-14T04:49:46;22.30;39.60
27492;DHT22;14927;51.210;6.838;2023-06-14T04:52:30;22.30;39.40
27492;DHT22;14927;51.210;6.838;2023-06-14T04:55:17;22.30;39.40
27492;DHT22;14927;51.210;6.838;2023-06-14T04:58:03;22.40;39.50
27492;DHT22;14927;51.210;6.838;2023-06-14T05:00:49;22.40;39.30
27492;DHT22;14927;51.210;6.838;2023-06-14T05:03:34;22.40;39.10
27492;DHT22;14927;51.210;6.838;2023-06-14T05:06:19;22.50;39.00
27492;DHT22;14927;51.210;6.838;2023-06-14T05:09:04;22.40;38.80
27492;DHT22;14927;51.210;6.838;2023-06-14T05:11:49;22.50;38.70
27492;DHT22;14927;51.210;6.838;2023-06-14T05:14:34;22.60;38.90
27492;DHT22;14927;51.210;6.838;2023-06-14T05:17:19;22.60;38.70
27492;DHT22;14927;51.210;6.838;2023-06-14T05:20:05;22.60;38.60
27492;DHT22;14927;51.210;6.838;2023-06-14T05:22:52;22.60;38.80
27492;DHT22;14927;51.210;6.838;2023-06-14T05:25:37;22.70;38.70
27492;DHT22;14927;51.210;6.838;2023-06-14T05:28:23;22.70;38.60
27492;DHT22;14927;51.210;6.838;2023-06-14T05:31:08;22.80;38.70
27492;DHT22;14927;51.210;6.838;2023-06-14T05:33:53;22.80;38.70
27492;DHT22;14927;51.210;6.838;2023-06-14T05:36:38;22.80;38.70
27492;DHT22;14927;51.210;6.838;2023-06-14T05:39:23;22.90;38.60
27492;DHT22;14927;51.210;6.838;2023-06-14T05:42:08;22.90;38.60
27492;DHT22;14927;51.210;6.838;2023-06-14T05:44:52;23.00;38.40
27492;DHT22;14927;51.210;6.838;2023-06-14T05:47:37;23.00;38.20
27492;DHT22;14927;51.210;6.838;2023-06-14T05:50:22;23.10;38.10
27492;DHT22;14927;51.210;6.838;2023-06-14T05:53:06;23.10;38.00
27492;DHT22;14927;51.210;6.838;2023-06-14T05:55:51;23.20;38.20
27492;DHT22;14927;51.210;6.838;2023-06-14T05:58:39;23.20;38.20
27492;DHT22;14927;51.210;6.838;2023-06-14T06:01:24;23.30;38.10
27492;DHT22;14927;51.210;6.838;2023-06-14T06:04:09;23.30;37.90
27492;DHT22;14927;51.210;6.838;2023-06-14T06:06:54;23.40;37.80
27492;DHT22;14927;51.210;6.838;2023-06-14T06:09:39;23.50;37.70
27492;DHT22;14927;51.210;6.838;2023-06-14T06:12:23;23.50;38.40
27492;DHT22;14927;51.210;6.838;2023-06-14T06:15:09;23.60;37.70
27492;DHT22;14927;51.210;6.838;2023-06-14T06:17:56;23.70;37.80
27492;DHT22;14927;51.210;6.838;2023-06-14T06:20:41;23.70;37.50
27492;DHT22;14927;51.210;6.838;2023-06-14T06:23:25;23.80;37.20
27492;DHT22;14927;51.210;6.838;2023-06-14T06:26:10;23.90;37.10
27492;DHT22;14927;51.210;6.838;2023-06-14T06:28:55;23.90;36.80
27492;DHT22;14927;51.210;6.838;2023-06-14T06:31:41;24.00;36.70
27492;DHT22;14927;51.210;6.838;2023-06-14T06:34:26;24.10;36.70
27492;DHT22;14927;51.210;6.838;2023-06-14T06:37:11;24.10;36.60
27492;DHT22;14927;51.210;6.838;2023-06-14T06:39:56;24.20;36.50
27492;DHT22;14927;51.210;6.838;2023-06-14T06:42:41;24.20;36.10
27492;DHT22;14927;51.210;6.838;2023-06-14T06:45:26;24.30;36.00
27492;DHT22;14927;51.210;6.838;2023-06-14T06:48:11;24.40;35.80
27492;DHT22;14927;51.210;6.838;2023-06-14T06:50:56;24.40;35.40
27492;DHT22;14927;51.210;6.838;2023-06-14T06:53:42;24.50;35.30
27492;DHT22;14927;51.210;6.838;2023-06-14T06:56:28;24.60;34.90
27492;DHT22;14927;51.210;6.838;2023-06-14T06:59:12;24.70;34.60
27492;DHT22;14927;51.210;6.838;2023-06-14T07:01:57;24.70;34.10
27492;DHT22;14927;51.210;6.838;2023-06-14T07:04:42;24.80;33.90
27492;DHT22;14927;51.210;6.838;2023-06-14T07:07:26;24.80;33.50
27492;DHT22;14927;51.210;6.838;2023-06-14T07:10:11;24.90;33.20
27492;DHT22;14927;51.210;6.838;2023-06-14T07:12:55;25.00;32.70
27492;DHT22;14927;51.210;6.838;2023-06-14T07:15:41;25.00;32.40
27492;DHT22;14927;51.210;6.838;2023-06-14T07:18:25;25.10;32.30
27492;DHT22;14927;51.210;6.838;2023-06-14T07:21:10;25.20;31.80
27492;DHT22;14927;51.210;6.838;2023-06-14T07:23:56;25.20;31.60
27492;DHT22;14927;51.210;6.838;2023-06-14T07:26:40;25.20;31.10
27492;DHT22;14927;51.210;6.838;2023-06-14T07:29:25;25.30;31.10
27492;DHT22;14927;51.210;6.838;2023-06-14T07:32:11;25.30;31.20
27492;DHT22;14927;51.210;6.838;2023-06-14T07:34:55;25.40;31.00
27492;DHT22;14927;51.210;6.838;2023-06-14T07:37:40;25.50;30.90
27492;DHT22;14927;51.210;6.838;2023-06-14T07:40:24;25.50;30.60
27492;DHT22;14927;51.210;6.838;2023-06-14T07:43:09;25.60;30.70
27492;DHT22;14927;51.210;6.838;2023-06-14T07:45:54;25.60;30.80
27492;DHT22;14927;51.210;6.838;2023-06-14T07:48:39;25.70;30.70
27492;DHT22;14927;51.210;6.838;2023-06-14T07:51:27;25.80;29.90
27492;DHT22;14927;51.210;6.838;2023-06-14T07:54:12;25.80;29.80
27492;DHT22;14927;51.210;6.838;2023-06-14T07:56:58;25.80;29.40
27492;DHT22;14927;51.210;6.838;2023-06-14T07:59:44;25.90;29.30
27492;DHT22;14927;51.210;6.838;2023-06-14T08:02:29;25.90;29.20
27492;DHT22;14927;51.210;6.838;2023-06-14T08:05:14;26.00;29.20
27492;DHT22;14927;51.210;6.838;2023-06-14T08:07:59;26.10;29.50
27492;DHT22;14927;51.210;6.838;2023-06-14T08:10:44;26.10;30.00
27492;DHT22;14927;51.210;6.838;2023-06-14T08:13:29;26.20;29.60
27492;DHT22;14927;51.210;6.838;2023-06-14T08:16:15;26.20;29.60
27492;DHT22;14927;51.210;6.838;2023-06-14T08:18:59;26.30;29.20
27492;DHT22;14927;51.210;6.838;2023-06-14T08:21:45;26.40;29.00
27492;DHT22;14927;51.210;6.838;2023-06-14T08:24:30;26.50;29.00
27492;DHT22;14927;51.210;6.838;2023-06-14T08:27:15;26.50;28.30
27492;DHT22;14927;51.210;6.838;2023-06-14T08:30:00;26.50;28.20
27492;DHT22;14927;51.210;6.838;2023-06-14T08:32:45;26.60;28.20
27492;DHT22;14927;51.210;6.838;2023-06-14T08:35:29;26.60;28.30
27492;DHT22;14927;51.210;6.838;2023-06-14T08:38:14;26.70;27.90
27492;DHT22;14927;51.210;6.838;2023-06-14T08:41:01;26.70;27.90
27492;DHT22;14927;51.210;6.838;2023-06-14T08:43:48;26.80;28.00
27492;DHT22;14927;51.210;6.838;2023-06-14T08:46:33;26.80;28.10
27492;DHT22;14927;51.210;6.838;2023-06-14T08:49:20;26.90;28.30
27492;DHT22;14927;51.210;6.838;2023-06-14T08:52:08;26.90;28.50
27492;DHT22;14927;51.210;6.838;2023-06-14T08:54:55;26.90;28.90
27492;DHT22;14927;51.210;6.838;2023-06-14T08:57:40;27.00;29.10
27492;DHT22;14927;51.210;6.838;2023-06-14T09:00:27;27.00;29.10
27492;DHT22;14927;51.210;6.838;2023-06-14T09:03:12;27.10;28.90
27492;DHT22;14927;51.210;6.838;2023-06-14T09:06:01;27.10;28.90
27492;DHT22;14927;51.210;6.838;2023-06-14T09:08:48;27.10;28.70
27492;DHT22;14927;51.210;6.838;2023-06-14T09:11:32;27.10;28.70
27492;DHT22;14927;51.210;6.838;2023-06-14T09:14:18;27.20;28.50
27492;DHT22;14927;51.210;6.838;2023-06-14T09:17:04;27.20;28.10
27492;DHT22;14927;51.210;6.838;2023-06-14T09:19:49;27.20;28.10
27492;DHT22;14927;51.210;6.838;2023-06-14T09:22:35;27.30;28.30
27492;DHT22;14927;51.210;6.838;2023-06-14T09:25:20;27.30;28.30
27492;DHT22;14927;51.210;6.838;2023-06-14T09:28:07;27.30;28.20
27492;DHT22;14927;51.210;6.838;2023-06-14T09:30:52;27.30;28.50
27492;DHT22;14927;51.210;6.838;2023-06-14T09:33:37;27.30;28.60
27492;DHT22;14927;51.210;6.838;2023-06-14T09:36:24;27.30;28.20
27492;DHT22;14927;51.210;6.838;2023-06-14T09:39:10;27.10;27.60
27492;DHT22;14927;51.210;6.838;2023-06-14T09:41:55;27.40;27.60
27492;DHT22;14927;51.210;6.838;2023-06-14T09:44:40;27.40;27.70
27492;DHT22;14927;51.210;6.838;2023-06-14T09:47:25;27.40;27.90
27492;DHT22;14927;51.210;6.838;2023-06-14T09:50:10;27.40;27.70
27492;DHT22;14927;51.210;6.838;2023-06-14T09:52:58;27.40;27.70
27492;DHT22;14927;51.210;6.838;2023-06-14T09:55:52;27.40;27.80
27492;DHT22;14927;51.210;6.838;2023-06-14T09:58:40;27.40;27.60
27492;DHT22;14927;51.210;6.838;2023-06-14T10:01:26;27.40;27.70
27492;DHT22;14927;51.210;6.838;2023-06-14T10:04:13;27.40;27.70
27492;DHT22;14927;51.210;6.838;2023-06-14T10:07:00;27.50;27.70
27492;DHT22;14927;51.210;6.838;2023-06-14T10:09:49;27.50;27.60
27492;DHT22;14927;51.210;6.838;2023-06-14T10:12:34;27.50;27.70
27492;DHT22;14927;51.210;6.838;2023-06-14T10:15:30;27.50;27.60
27492;DHT22;14927;51.210;6.838;2023-06-14T10:21:31;27.60;27.60
27492;DHT22;14927;51.210;6.838;2023-06-14T10:24:29;27.60;27.80
27492;DHT22;14927;51.210;6.838;2023-06-14T10:27:16;27.70;28.10
27492;DHT22;14927;51.210;6.838;2023-06-14T10:30:03;27.70;28.10
27492;DHT22;14927;51.210;6.838;2023-06-14T10:33:06;27.80;28.00
27492;DHT22;14927;51.210;6.838;2023-06-14T10:36:07;27.80;27.90
27492;DHT22;14927;51.210;6.838;2023-06-14T10:39:17;27.90;27.80
27492;DHT22;14927;51.210;6.838;2023-06-14T10:42:04;27.90;27.50
27492;DHT22;14927;51.210;6.838;2023-06-14T10:44:51;28.00;27.80
27492;DHT22;14927;51.210;6.838;2023-06-14T10:47:36;28.00;27.90
27492;DHT22;14927;51.210;6.838;2023-06-14T10:50:30;28.10;28.00
27492;DHT22;14927;51.210;6.838;2023-06-14T10:53:24;28.10;27.90
27492;DHT22;14927;51.210;6.838;2023-06-14T10:56:23;28.20;27.90
27492;DHT22;14927;51.210;6.838;2023-06-14T10:59:11;28.30;27.70
27492;DHT22;14927;51.210;6.838;2023-06-14T11:04:49;28.40;27.90
27492;DHT22;14927;51.210;6.838;2023-06-14T11:07:53;28.50;27.70
27492;DHT22;14927;51.210;6.838;2023-06-14T11:10:44;28.50;27.50
27492;DHT22;14927;51.210;6.838;2023-06-14T11:13:32;28.70;28.10
27492;DHT22;14927;51.210;6.838;2023-06-14T11:16:18;28.70;28.30
27492;DHT22;14927;51.210;6.838;2023-06-14T11:19:05;28.70;28.10
27492;DHT22;14927;51.210;6.838;2023-06-14T11:21:50;28.80;28.20
27492;DHT22;14927;51.210;6.838;2023-06-14T11:24:34;28.80;28.10
27492;DHT22;14927;51.210;6.838;2023-06-14T11:27:19;28.80;27.90
27492;DHT22;14927;51.210;6.838;2023-06-14T11:30:07;28.90;27.90
27492;DHT22;14927;51.210;6.838;2023-06-14T11:32:54;28.90;27.80
27492;DHT22;14927;51.210;6.838;2023-06-14T11:35:39;29.00;28.00
27492;DHT22;14927;51.210;6.838;2023-06-14T11:38:25;29.00;28.10
27492;DHT22;14927;51.210;6.838;2023-06-14T11:41:10;29.10;28.00
27492;DHT22;14927;51.210;6.838;2023-06-14T11:43:54;29.20;27.90
27492;DHT22;14927;51.210;6.838;2023-06-14T11:46:40;29.30;27.80
27492;DHT22;14927;51.210;6.838;2023-06-14T11:49:25;29.40;27.80
27492;DHT22;14927;51.210;6.838;2023-06-14T11:52:11;29.50;27.70
27492;DHT22;14927;51.210;6.838;2023-06-14T11:54:56;29.60;27.90
27492;DHT22;14927;51.210;6.838;2023-06-14T11:57:42;29.80;27.70
27492;DHT22;14927;51.210;6.838;2023-06-14T12:00:27;29.90;27.40
27492;DHT22;14927;51.210;6.838;2023-06-14T12:03:12;30.10;27.10
27492;DHT22;14927;51.210;6.838;2023-06-14T12:06:07;30.20;27.20
27492;DHT22;14927;51.210;6.838;2023-06-14T12:08:56;30.40;26.70
27492;DHT22;14927;51.210;6.838;2023-06-14T12:11:41;30.50;26.70
27492;DHT22;14927;51.210;6.838;2023-06-14T12:14:32;30.70;26.60
27492;DHT22;14927;51.210;6.838;2023-06-14T12:17:18;30.90;25.90
27492;DHT22;14927;51.210;6.838;2023-06-14T12:20:06;31.00;26.10
27492;DHT22;14927;51.210;6.838;2023-06-14T12:22:57;31.10;26.20
27492;DHT22;14927;51.210;6.838;2023-06-14T12:25:42;31.30;26.10
27492;DHT22;14927;51.210;6.838;2023-06-14T12:28:31;31.40;25.90
27492;DHT22;14927;51.210;6.838;2023-06-14T12:31:16;31.60;25.60
27492;DHT22;14927;51.210;6.838;2023-06-14T12:34:00;31.70;26.00
27492;DHT22;14927;51.210;6.838;2023-06-14T12:36:45;31.80;25.70
27492;DHT22;14927;51.210;6.838;2023-06-14T12:39:30;32.00;25.80
27492;DHT22;14927;51.210;6.838;2023-06-14T12:42:15;32.10;25.80
27492;DHT22;14927;51.210;6.838;2023-06-14T12:45:00;32.30;25.50
27492;DHT22;14927;51.210;6.838;2023-06-14T12:47:44;32.50;25.10
27492;DHT22;14927;51.210;6.838;2023-06-14T12:50:29;32.60;25.00
27492;DHT22;14927;51.210;6.838;2023-06-14T12:53:14;32.80;25.30
27492;DHT22;14927;51.210;6.838;2023-06-14T12:55:59;33.00;25.00
27492;DHT22;14927;51.210;6.838;2023-06-14T12:58:43;33.10;24.80
27492;DHT22;14927;51.210;6.838;2023-06-14T13:01:31;33.30;24.50
27492;DHT22;14927;51.210;6.838;2023-06-14T13:04:16;33.40;24.50
27492;DHT22;14927;51.210;6.838;2023-06-14T13:07:03;33.60;24.30
27492;DHT22;14927;51.210;6.838;2023-06-14T13:09:49;33.70;23.70
27492;DHT22;14927;51.210;6.838;2023-06-14T13:12:34;33.90;23.50
27492;DHT22;14927;51.210;6.838;2023-06-14T13:15:19;34.00;23.60
27492;DHT22;14927;51.210;6.838;2023-06-14T13:18:04;34.10;23.40
27492;DHT22;14927;51.210;6.838;2023-06-14T13:20:51;34.30;23.50
27492;DHT22;14927;51.210;6.838;2023-06-14T13:23:36;34.40;23.40
27492;DHT22;14927;51.210;6.838;2023-06-14T13:26:24;34.60;23.30
27492;DHT22;14927;51.210;6.838;2023-06-14T13:29:08;34.80;23.30
27492;DHT22;14927;51.210;6.838;2023-06-14T13:31:53;35.00;23.30
27492;DHT22;14927;51.210;6.838;2023-06-14T13:34:38;35.10;22.90
27492;DHT22;14927;51.210;6.838;2023-06-14T13:37:23;35.30;22.90
27492;DHT22;14927;51.210;6.838;2023-06-14T13:40:08;35.50;22.60
27492;DHT22;14927;51.210;6.838;2023-06-14T13:42:52;35.70;22.30
27492;DHT22;14927;51.210;6.838;2023-06-14T13:45:37;35.80;22.00
27492;DHT22;14927;51.210;6.838;2023-06-14T13:48:22;36.10;21.80
27492;DHT22;14927;51.210;6.838;2023-06-14T13:51:08;36.30;21.70
27492;DHT22;14927;51.210;6.838;2023-06-14T13:53:53;36.50;21.60
27492;DHT22;14927;51.210;6.838;2023-06-14T13:56:39;36.60;21.40
27492;DHT22;14927;51.210;6.838;2023-06-14T13:59:24;36.80;21.20
27492;DHT22;14927;51.210;6.838;2023-06-14T14:02:08;36.90;21.20
27492;DHT22;14927;51.210;6.838;2023-06-14T14:04:53;37.00;21.10
27492;DHT22;14927;51.210;6.838;2023-06-14T14:07:38;37.20;21.00
27492;DHT22;14927;51.210;6.838;2023-06-14T14:10:24;37.20;20.70
27492;DHT22;14927;51.210;6.838;2023-06-14T14:13:09;37.20;20.60
27492;DHT22;14927;51.210;6.838;2023-06-14T14:15:54;37.10;20.30
27492;DHT22;14927;51.210;6.838;2023-06-14T14:18:39;37.00;20.20
27492;DHT22;14927;51.210;6.838;2023-06-14T14:21:24;36.90;20.10
27492;DHT22;14927;51.210;6.838;2023-06-14T14:24:08;36.70;20.10
27492;DHT22;14927;51.210;6.838;2023-06-14T14:26:53;36.60;20.40
27492;DHT22;14927;51.210;6.838;2023-06-14T14:29:38;36.40;20.20
27492;DHT22;14927;51.210;6.838;2023-06-14T14:32:24;36.20;20.40
27492;DHT22;14927;51.210;6.838;2023-06-14T14:35:09;36.10;20.60
27492;DHT22;14927;51.210;6.838;2023-06-14T14:37:54;35.90;21.00
27492;DHT22;14927;51.210;6.838;2023-06-14T14:40:39;35.80;21.20
27492;DHT22;14927;51.210;6.838;2023-06-14T14:43:24;35.60;21.00
27492;DHT22;14927;51.210;6.838;2023-06-14T14:46:09;35.50;21.40
27492;DHT22;14927;51.210;6.838;2023-06-14T14:48:54;35.40;21.20
27492;DHT22;14927;51.210;6.838;2023-06-14T14:51:39;35.20;21.50
27492;DHT22;14927;51.210;6.838;2023-06-14T14:54:24;35.10;21.50
27492;DHT22;14927;51.210;6.838;2023-06-14T14:57:10;35.00;21.50
27492;DHT22;14927;51.210;6.838;2023-06-14T14:59:55;34.90;21.60
27492;DHT22;14927;51.210;6.838;2023-06-14T15:02:41;34.70;21.70
27492;DHT22;14927;51.210;6.838;2023-06-14T15:05:26;34.70;21.50
27492;DHT22;14927;51.210;6.838;2023-06-14T15:08:11;34.50;21.80
27492;DHT22;14927;51.210;6.838;2023-06-14T15:10:57;34.40;22.10
27492;DHT22;14927;51.210;6.838;2023-06-14T15:13:43;34.10;22.00
27492;DHT22;14927;51.210;6.838;2023-06-14T15:16:27;34.20;22.30
27492;DHT22;14927;51.210;6.838;2023-06-14T15:19:12;34.10;22.10
27492;DHT22;14927;51.210;6.838;2023-06-14T15:21:57;34.00;22.40
27492;DHT22;14927;51.210;6.838;2023-06-14T15:24:43;34.00;22.20
27492;DHT22;14927;51.210;6.838;2023-06-14T15:27:29;33.90;22.40
27492;DHT22;14927;51.210;6.838;2023-06-14T15:30:14;33.80;22.50
27492;DHT22;14927;51.210;6.838;2023-06-14T15:32:59;33.70;22.50
27492;DHT22;14927;51.210;6.838;2023-06-14T15:35:44;33.70;22.60
27492;DHT22;14927;51.210;6.838;2023-06-14T15:38:28;33.60;22.90
27492;DHT22;14927;51.210;6.838;2023-06-14T15:41:14;33.50;22.80
27492;DHT22;14927;51.210;6.838;2023-06-14T15:43:58;33.40;22.60
27492;DHT22;14927;51.210;6.838;2023-06-14T15:46:44;33.40;22.90
27492;DHT22;14927;51.210;6.838;2023-06-14T15:49:29;33.30;22.50
27492;DHT22;14927;51.210;6.838;2023-06-14T15:52:13;33.20;22.40
27492;DHT22;14927;51.210;6.838;2023-06-14T15:54:58;33.20;22.70
27492;DHT22;14927;51.210;6.838;2023-06-14T15:57:43;33.20;22.90
27492;DHT22;14927;51.210;6.838;2023-06-14T16:00:27;33.20;23.20
27492;DHT22;14927;51.210;6.838;2023-06-14T16:03:12;33.20;23.30
27492;DHT22;14927;51.210;6.838;2023-06-14T16:05:57;33.20;23.10
27492;DHT22;14927;51.210;6.838;2023-06-14T16:08:41;33.20;23.10
27492;DHT22;14927;51.210;6.838;2023-06-14T16:11:28;33.20;22.70
27492;DHT22;14927;51.210;6.838;2023-06-14T16:14:18;33.20;22.80
27492;DHT22;14927;51.210;6.838;2023-06-14T16:17:03;33.20;23.00
27492;DHT22;14927;51.210;6.838;2023-06-14T16:19:49;33.10;23.50
27492;DHT22;14927;51.210;6.838;2023-06-14T16:22:34;33.10;23.10
27492;DHT22;14927;51.210;6.838;2023-06-14T16:25:19;33.10;23.20
27492;DHT22;14927;51.210;6.838;2023-06-14T16:28:08;33.10;23.10
27492;DHT22;14927;51.210;6.838;2023-06-14T16:30:57;33.10;22.80
27492;DHT22;14927;51.210;6.838;2023-06-14T16:33:43;33.30;23.00
27492;DHT22;14927;51.210;6.838;2023-06-14T16:36:28;33.30;23.00
27492;DHT22;14927;51.210;6.838;2023-06-14T16:39:12;33.30;22.70
27492;DHT22;14927;51.210;6.838;2023-06-14T16:41:57;33.30;22.90
27492;DHT22;14927;51.210;6.838;2023-06-14T16:44:42;33.40;23.00
27492;DHT22;14927;51.210;6.838;2023-06-14T16:47:27;33.40;23.00
27492;DHT22;14927;51.210;6.838;2023-06-14T16:50:12;33.50;22.50
27492;DHT22;14927;51.210;6.838;2023-06-14T16:52:57;33.60;22.40
27492;DHT22;14927;51.210;6.838;2023-06-14T16:55:41;33.60;22.40
27492;DHT22;14927;51.210;6.838;2023-06-14T16:58:26;33.70;22.40
27492;DHT22;14927;51.210;6.838;2023-06-14T17:01:11;33.70;22.40
27492;DHT22;14927;51.210;6.838;2023-06-14T17:03:57;33.70;22.20
27492;DHT22;14927;51.210;6.838;2023-06-14T17:06:42;33.70;22.50
27492;DHT22;14927;51.210;6.838;2023-06-14T17:09:27;33.70;22.30
27492;DHT22;14927;51.210;6.838;2023-06-14T17:12:12;33.80;22.30
27492;DHT22;14927;51.210;6.838;2023-06-14T17:15:02;33.90;22.20
27492;DHT22;14927;51.210;6.838;2023-06-14T17:17:53;34.10;22.30
27492;DHT22;14927;51.210;6.838;2023-06-14T17:20:42;34.20;22.90
27492;DHT22;14927;51.210;6.838;2023-06-14T17:23:30;34.40;22.40
27492;DHT22;14927;51.210;6.838;2023-06-14T17:26:15;34.50;22.10
27492;DHT22;14927;51.210;6.838;2023-06-14T17:29:20;34.70;21.70
27492;DHT22;14927;51.210;6.838;2023-06-14T17:32:10;34.90;21.40
27492;DHT22;14927;51.210;6.838;2023-06-14T17:34:56;35.10;21.30
27492;DHT22;14927;51.210;6.838;2023-06-14T17:37:44;35.20;21.00